createdAt,value
2016-11-14T00:01:38.741Z,1033.8
2016-11-14T00:06:43.155Z,1033.8
2016-11-14T00:11:47.241Z,1033.8
2016-11-14T00:16:51.326Z,1033.7
2016-11-14T00:21:55.739Z,1033.7
2016-11-14T00:26:59.818Z,1033.7
2016-11-14T00:32:03.900Z,1033.7
2016-11-14T00:37:08.316Z,1033.7
2016-11-14T00:42:12.400Z,1033.8
2016-11-14T00:47:16.475Z,1033.8
2016-11-14T00:52:20.558Z,1033.8
2016-11-14T00:57:25.313Z,1033.9
2016-11-14T01:02:30.062Z,1033.9
2016-11-14T01:07:34.807Z,1033.9
2016-11-14T01:12:39.557Z,1034
2016-11-14T01:17:43.635Z,1034
2016-11-14T01:22:47.714Z,1033.9
2016-11-14T01:27:52.130Z,1033.8
2016-11-14T01:32:56.203Z,1033.7
2016-11-14T01:38:00.281Z,1033.5
2016-11-14T01:43:04.363Z,1033.4
2016-11-14T01:48:08.779Z,1033.5
2016-11-14T01:53:12.862Z,1033.5
2016-11-14T01:58:16.946Z,1033.5
2016-11-14T02:03:21.024Z,1033.4
2016-11-14T02:08:25.784Z,1033.4
2016-11-14T02:13:30.196Z,1033.3
2016-11-14T02:18:34.284Z,1033.2
2016-11-14T02:23:38.369Z,1033.2
2016-11-14T02:28:42.453Z,1033.1
2016-11-14T02:33:46.553Z,1033.1
2016-11-14T02:38:51.321Z,1033.2
2016-11-14T02:43:55.736Z,1033.2
2016-11-14T02:48:59.827Z,1033.2
2016-11-14T02:54:03.916Z,1033.1
2016-11-14T02:59:08.676Z,1033.2
2016-11-14T03:04:13.433Z,1033.2
2016-11-14T03:09:17.851Z,1033.3
2016-11-14T03:14:21.924Z,1033.3
2016-11-14T03:19:26.007Z,1033.4
2016-11-14T03:24:31.096Z,1033.3
2016-11-14T03:29:35.517Z,1033.4
2016-11-14T03:34:39.598Z,1033.5
2016-11-14T03:39:44.357Z,1033.6
2016-11-14T03:44:48.432Z,1033.6
2016-11-14T03:49:53.180Z,1033.7
2016-11-14T03:54:57.926Z,1033.8
2016-11-14T04:00:02.009Z,1033.9
2016-11-14T04:05:06.761Z,1033.9
2016-11-14T04:10:10.843Z,1033.8
2016-11-14T04:15:14.930Z,1033.7
2016-11-14T04:20:19.006Z,1033.7
2016-11-14T04:25:23.424Z,1033.7
2016-11-14T04:30:27.840Z,1033.7
2016-11-14T04:35:31.932Z,1033.7
2016-11-14T04:40:36.014Z,1033.6
2016-11-14T04:45:40.434Z,1033.7
2016-11-14T04:50:44.515Z,1033.8
2016-11-14T04:55:48.591Z,1033.7
2016-11-14T05:00:52.698Z,1033.6
2016-11-14T05:05:57.133Z,1033.6
2016-11-14T05:11:01.213Z,1033.7
2016-11-14T05:16:05.304Z,1033.7
2016-11-14T05:21:09.722Z,1033.8
2016-11-14T05:26:13.821Z,1034
2016-11-14T05:31:17.936Z,1033.9
2016-11-14T05:36:22.360Z,1033.9
2016-11-14T05:41:27.112Z,1033.9
2016-11-14T05:46:31.605Z,1033.9
2016-11-14T05:51:35.693Z,1034
2016-11-14T05:56:39.805Z,1033.9
2016-11-14T06:01:43.883Z,1033.8
2016-11-14T06:06:48.323Z,1033.8
2016-11-14T06:11:52.542Z,1033.8
2016-11-14T06:16:56.962Z,1033.7
2016-11-14T06:22:01.057Z,1033.6
2016-11-14T06:27:06.144Z,1033.5
2016-11-14T06:32:10.233Z,1033.5
2016-11-14T06:37:14.995Z,1033.5
2016-11-14T06:42:19.078Z,1033.6
2016-11-14T06:47:23.168Z,1033.7
2016-11-14T06:52:27.599Z,1033.8
2016-11-14T06:57:31.691Z,1033.8
2016-11-14T07:02:35.784Z,1033.8
2016-11-14T07:07:40.203Z,1033.7
2016-11-14T07:12:44.622Z,1033.7
2016-11-14T07:17:49.041Z,1033.7
2016-11-14T07:22:53.127Z,1033.6
2016-11-14T07:27:57.882Z,1033.6
2016-11-14T07:33:01.965Z,1033.6
2016-11-14T07:38:07.388Z,1033.6
2016-11-14T07:43:11.807Z,1033.7
2016-11-14T07:48:15.892Z,1033.9
2016-11-14T07:53:19.986Z,1033.9
2016-11-14T07:58:24.073Z,1033.9
2016-11-14T08:03:28.495Z,1033.8
2016-11-14T08:08:32.593Z,1033.9
2016-11-14T08:13:37.013Z,1033.8
2016-11-14T08:18:41.103Z,1033.7
2016-11-14T08:23:45.516Z,1033.7
2016-11-14T08:28:49.938Z,1033.7
2016-11-14T08:33:54.368Z,1033.7
2016-11-14T08:38:58.454Z,1033.7
2016-11-14T08:44:02.875Z,1033.7
2016-11-14T08:49:06.958Z,1033.7
2016-11-14T08:54:11.371Z,1033.7
2016-11-14T08:59:15.791Z,1033.7
2016-11-14T09:04:19.870Z,1033.7
2016-11-14T09:09:23.949Z,1033.7
2016-11-14T09:14:28.705Z,1033.6
2016-11-14T09:19:32.791Z,1033.6
2016-11-14T09:24:36.877Z,1033.7
2016-11-14T09:29:41.302Z,1033.7
2016-11-14T09:34:45.391Z,1033.8
2016-11-14T09:39:49.491Z,1033.7
2016-11-14T09:44:53.912Z,1033.8
2016-11-14T09:49:58.333Z,1033.7
2016-11-14T09:55:02.428Z,1033.7
2016-11-14T10:00:06.850Z,1033.8
2016-11-14T10:05:11.946Z,1033.7
2016-11-14T10:10:16.366Z,1033.7
2016-11-14T10:15:20.457Z,1033.7
2016-11-14T10:20:24.553Z,1033.6
2016-11-14T10:25:28.644Z,1033.5
2016-11-14T10:30:33.395Z,1033.5
2016-11-14T10:35:37.819Z,1033.3
2016-11-14T10:40:42.249Z,1033.1
2016-11-14T10:45:46.332Z,1033.1
2016-11-14T10:50:50.421Z,1033
2016-11-14T10:55:54.507Z,1033
2016-11-14T11:00:58.592Z,1032.8
2016-11-14T11:06:02.687Z,1032.7
2016-11-14T11:11:07.311Z,1032.5
2016-11-14T11:16:11.395Z,1032.4
2016-11-14T11:21:15.489Z,1032.4
2016-11-14T11:26:19.586Z,1032.3
2016-11-14T11:31:23.673Z,1032.2
2016-11-14T11:36:27.758Z,1032.1
2016-11-14T11:41:32.184Z,1032.2
2016-11-14T11:46:36.270Z,1032.3
2016-11-14T11:51:40.687Z,1032.2
2016-11-14T11:56:45.111Z,1032.2
2016-11-14T12:01:49.539Z,1032
2016-11-14T12:06:53.631Z,1032
2016-11-14T12:11:58.383Z,1031.9
2016-11-14T12:17:02.816Z,1031.9
2016-11-14T12:22:06.909Z,1031.9
2016-11-14T12:27:10.992Z,1031.8
2016-11-14T12:32:15.079Z,1031.7
2016-11-14T12:37:19.160Z,1031.7
2016-11-14T12:42:23.250Z,1031.6
2016-11-14T12:47:27.339Z,1031.6
2016-11-14T12:52:31.754Z,1031.5
2016-11-14T12:57:35.841Z,1031.5
2016-11-14T13:02:40.609Z,1031.6
2016-11-14T13:07:45.029Z,1031.6
2016-11-14T13:12:49.114Z,1031.5
2016-11-14T13:17:54.163Z,1031.5
2016-11-14T13:22:58.244Z,1031.4
2016-11-14T13:28:02.333Z,1031.3
2016-11-14T13:33:07.763Z,1031.3
2016-11-14T13:38:11.846Z,1031.3
2016-11-14T13:43:16.878Z,1031.2
2016-11-14T13:48:21.296Z,1031.2
2016-11-14T13:53:25.392Z,1031.2
2016-11-14T13:58:29.810Z,1031.2
2016-11-14T14:03:34.262Z,1031.1
2016-11-14T14:08:38.676Z,1031.1
2016-11-14T14:13:42.991Z,1031
2016-11-14T14:18:47.075Z,1030.9
2016-11-14T14:23:51.870Z,1030.8
2016-11-14T14:28:55.966Z,1030.7
2016-11-14T14:34:00.401Z,1030.7
2016-11-14T14:39:04.538Z,1030.6
2016-11-14T14:44:08.960Z,1030.6
2016-11-14T14:49:13.421Z,1030.7
2016-11-14T14:54:18.244Z,1030.7
2016-11-14T14:59:22.994Z,1030.7
2016-11-14T15:04:27.546Z,1030.7
2016-11-14T15:09:31.704Z,1030.8
2016-11-14T15:14:36.132Z,1030.9
2016-11-14T15:19:40.363Z,1030.8
2016-11-14T15:24:45.151Z,1030.9
2016-11-14T15:29:49.583Z,1030.9
2016-11-14T15:34:54.050Z,1031
2016-11-14T15:39:58.809Z,1031
2016-11-14T15:45:02.890Z,1030.9
2016-11-14T15:50:07.316Z,1030.7
2016-11-14T15:55:11.731Z,1030.8
2016-11-14T16:00:15.823Z,1030.8
2016-11-14T16:05:19.920Z,1030.6
2016-11-14T16:10:23.999Z,1030.6
2016-11-14T16:15:28.417Z,1030.6
2016-11-14T16:20:32.831Z,1030.6
2016-11-14T16:25:37.620Z,1030.4
2016-11-14T16:30:42.035Z,1030.4
2016-11-14T16:35:46.118Z,1030.5
2016-11-14T16:40:50.218Z,1030.4
2016-11-14T16:45:54.644Z,1030.3
2016-11-14T16:50:58.724Z,1030.4
2016-11-14T16:56:02.803Z,1030.3
2016-11-14T17:01:07.241Z,1030.3
2016-11-14T17:06:11.323Z,1030.2
2016-11-14T17:11:15.405Z,1030.1
2016-11-14T17:16:19.520Z,1030.1
2016-11-14T17:21:24.274Z,1030
2016-11-14T17:26:28.357Z,1030.1
2016-11-14T17:31:32.786Z,1030
2016-11-14T17:36:37.202Z,1029.8
2016-11-14T17:41:41.283Z,1029.8
2016-11-14T17:46:45.693Z,1029.7
2016-11-14T17:51:50.446Z,1029.7
2016-11-14T17:56:54.571Z,1029.6
2016-11-14T18:01:59.332Z,1029.6
2016-11-14T18:07:03.439Z,1029.6
2016-11-14T18:12:07.580Z,1029.6
2016-11-14T18:17:11.657Z,1029.6
2016-11-14T18:22:15.737Z,1029.4
2016-11-14T18:27:19.815Z,1029.3
2016-11-14T18:32:24.336Z,1029.4
2016-11-14T18:37:28.421Z,1029.1
2016-11-14T18:42:32.839Z,1029.1
2016-11-14T18:47:36.920Z,1029.1
2016-11-14T18:52:41.337Z,1028.9
2016-11-14T18:57:45.426Z,1028.9
2016-11-14T19:02:49.511Z,1028.8
2016-11-14T19:07:53.591Z,1028.8
2016-11-14T19:12:57.676Z,1028.8
2016-11-14T19:18:02.093Z,1028.8
2016-11-14T19:23:06.516Z,1028.7
2016-11-14T19:28:10.935Z,1028.7
2016-11-14T19:33:15.809Z,1028.6
2016-11-14T19:38:19.899Z,1028.6
2016-11-14T19:43:24.320Z,1028.5
2016-11-14T19:48:28.404Z,1028.4
2016-11-14T19:53:32.830Z,1028.4
2016-11-14T19:58:36.945Z,1028.4
2016-11-14T20:03:41.031Z,1028.3
2016-11-14T20:08:45.125Z,1028.1
2016-11-14T20:13:49.207Z,1028.2
2016-11-14T20:18:53.628Z,1028.1
2016-11-14T20:23:57.722Z,1028.1
2016-11-14T20:29:02.141Z,1028
2016-11-14T20:34:06.223Z,1028
2016-11-14T20:39:10.973Z,1028
2016-11-14T20:44:15.064Z,1027.9
2016-11-14T20:49:19.152Z,1027.9
2016-11-14T20:54:23.581Z,1027.8
2016-11-14T20:59:27.667Z,1027.7
2016-11-14T21:04:32.426Z,1027.7
2016-11-14T21:09:36.530Z,1027.6
2016-11-14T21:14:40.619Z,1027.5
2016-11-14T21:19:44.704Z,1027.4
2016-11-14T21:24:48.778Z,1027.3
2016-11-14T21:29:53.199Z,1027.1
2016-11-14T21:34:57.289Z,1027.1
2016-11-14T21:40:01.378Z,1027.1
2016-11-14T21:45:05.479Z,1027
2016-11-14T21:50:09.914Z,1027
2016-11-14T21:55:14.335Z,1027
2016-11-14T22:00:18.435Z,1026.9
2016-11-14T22:05:22.859Z,1026.7
2016-11-14T22:10:27.284Z,1026.6
2016-11-14T22:16:02.016Z,1026.5
2016-11-14T22:21:06.442Z,1026.6
2016-11-14T22:26:10.540Z,1026.4
2016-11-14T22:31:14.629Z,1026.3
2016-11-14T22:36:18.716Z,1026.3
2016-11-14T22:41:23.136Z,1026.2
2016-11-14T22:46:27.223Z,1026.1
2016-11-14T22:51:31.643Z,1026.1
2016-11-14T22:56:36.063Z,1026
2016-11-14T23:01:40.169Z,1025.9
2016-11-14T23:06:44.253Z,1025.8
2016-11-14T23:11:48.403Z,1025.7
2016-11-14T23:16:52.814Z,1025.7
2016-11-14T23:21:56.892Z,1025.7
2016-11-14T23:27:03.154Z,1025.6
2016-11-14T23:32:07.241Z,1025.6
2016-11-14T23:37:11.326Z,1025.5
2016-11-14T23:42:15.413Z,1025.5
2016-11-14T23:47:19.500Z,1025.4
2016-11-14T23:52:23.584Z,1025.3
2016-11-14T23:57:27.995Z,1025.2
